createdAt,value
2023-04-04T00:00:53.636Z,6.10
2023-04-04T00:04:42.864Z,7.10
2023-04-04T00:08:32.151Z,8.30
2023-04-04T00:12:13.873Z,6.40
2023-04-04T00:15:55.630Z,6.80
2023-04-04T00:19:44.843Z,6.90
2023-04-04T00:23:34.246Z,6.90
2023-04-04T00:27:23.592Z,6.80
2023-04-04T00:31:12.986Z,8.80
2023-04-04T00:35:02.070Z,8.90
2023-04-04T00:38:51.158Z,8.00
2023-04-04T00:42:32.784Z,9.30
2023-04-04T00:46:21.031Z,5.20
2023-04-04T00:50:09.810Z,8.60
2023-04-04T00:53:58.996Z,8.50
2023-04-04T00:57:48.168Z,7.40
2023-04-04T01:01:37.345Z,9.00
2023-04-04T01:05:26.595Z,9.10
2023-04-04T01:09:05.931Z,8.50
2023-04-04T01:12:55.002Z,8.00
2023-04-04T01:16:44.323Z,8.20
2023-04-04T01:20:45.737Z,12.10
2023-04-04T01:24:39.605Z,7.30
2023-04-04T01:43:51.538Z,8.30
2023-04-04T01:47:35.174Z,8.60
2023-04-04T01:51:24.290Z,9.20
2023-04-04T01:55:13.445Z,11.60
2023-04-04T01:59:02.556Z,8.60
2023-04-04T02:02:51.890Z,10.60
2023-04-04T02:06:41.233Z,8.50
2023-04-04T02:10:29.138Z,8.00
2023-04-04T02:14:18.272Z,9.80
2023-04-04T02:18:01.890Z,9.10
2023-04-04T02:21:57.369Z,9.00
2023-04-04T02:25:46.639Z,10.80
2023-04-04T02:29:29.119Z,10.40
2023-04-04T02:33:18.221Z,6.50
2023-04-04T02:37:07.345Z,8.50
2023-04-04T02:40:43.216Z,9.00
2023-04-04T02:44:32.420Z,6.50
2023-04-04T02:48:07.747Z,11.20
2023-04-04T02:55:27.610Z,8.30
2023-04-04T02:59:16.769Z,6.80
2023-04-04T03:03:06.014Z,8.50
2023-04-04T03:06:55.705Z,8.30
2023-04-04T03:10:45.287Z,9.80
2023-04-04T03:14:34.763Z,11.20
2023-04-04T03:18:46.788Z,11.60
2023-04-04T03:22:35.865Z,9.30
2023-04-04T03:26:24.953Z,8.70
2023-04-04T03:30:13.357Z,9.70
2023-04-04T03:34:02.463Z,11.50
2023-04-04T03:37:51.351Z,10.30
2023-04-04T03:41:43.206Z,8.70
2023-04-04T03:45:32.296Z,7.70
2023-04-04T03:49:21.461Z,8.00
2023-04-04T03:53:10.077Z,7.70
2023-04-04T03:56:50.223Z,9.50
2023-04-04T04:00:32.592Z,7.60
2023-04-04T04:04:22.079Z,13.90
2023-04-04T04:08:10.611Z,14.60
2023-04-04T04:12:00.997Z,19.70
2023-04-04T04:15:49.094Z,52.10
2023-04-04T04:34:30.552Z,32.00
2023-04-04T04:38:19.411Z,9.00
2023-04-04T04:45:59.594Z,12.50
2023-04-04T04:49:40.781Z,7.40
2023-04-04T04:53:30.254Z,8.00
2023-04-04T04:57:21.168Z,15.90
2023-04-04T05:00:53.583Z,41.10
2023-04-04T05:04:43.528Z,38.70
2023-04-04T05:08:05.564Z,21.70
2023-04-04T05:11:30.669Z,41.70
2023-04-04T05:14:50.152Z,42.40
2023-04-04T05:18:14.456Z,24.90
2023-04-04T05:21:19.879Z,21.50
2023-04-04T05:24:43.035Z,20.00
2023-04-04T05:27:55.863Z,18.60
2023-04-04T05:31:12.871Z,31.50
2023-04-04T05:34:25.660Z,20.60
2023-04-04T05:37:56.306Z,22.50
2023-04-04T05:40:51.548Z,27.60
2023-04-04T05:43:51.584Z,46.50
2023-04-04T05:47:10.215Z,30.00
2023-04-04T05:50:14.714Z,30.70
2023-04-04T05:53:30.247Z,29.90
2023-04-04T05:57:01.066Z,35.40
2023-04-04T06:00:11.742Z,29.50
2023-04-04T06:03:32.394Z,22.20
2023-04-04T06:06:59.462Z,13.70
2023-04-04T06:09:51.711Z,17.70
2023-04-04T06:13:18.583Z,19.20
2023-04-04T06:16:28.669Z,12.30
2023-04-04T06:19:39.715Z,15.90
2023-04-04T06:22:29.161Z,11.80
2023-04-04T06:25:24.778Z,15.50
2023-04-04T06:28:32.378Z,12.00
2023-04-04T06:32:08.029Z,11.80
2023-04-04T06:35:57.186Z,15.40
2023-04-04T06:39:46.320Z,23.10
2023-04-04T06:43:35.434Z,15.90
2023-04-04T06:47:24.612Z,9.20
2023-04-04T06:51:14.153Z,8.50
2023-04-04T06:54:57.581Z,11.50
2023-04-04T06:58:46.740Z,9.80
2023-04-04T07:02:35.915Z,8.00
2023-04-04T07:06:18.373Z,7.10
2023-04-04T07:10:07.542Z,8.70
2023-04-04T07:13:56.666Z,7.40
2023-04-04T07:17:45.808Z,9.20
2023-04-04T07:21:34.956Z,7.50
2023-04-04T07:25:14.398Z,10.00
2023-04-04T07:29:03.535Z,5.80
2023-04-04T07:32:52.741Z,3.50
2023-04-04T07:36:42.021Z,5.20
2023-04-04T07:43:52.086Z,3.90
2023-04-04T07:47:41.263Z,4.60
2023-04-04T07:51:30.415Z,5.30
2023-04-04T07:55:19.641Z,4.70
2023-04-04T07:59:08.868Z,5.20
2023-04-04T08:02:56.639Z,10.60
2023-04-04T08:06:37.474Z,6.20
2023-04-04T08:10:19.653Z,9.30
2023-04-04T08:14:08.817Z,8.50
2023-04-04T08:17:56.431Z,6.30
2023-04-04T08:21:45.455Z,6.60
2023-04-04T08:25:20.089Z,4.30
2023-04-04T08:29:07.141Z,17.60
2023-04-04T08:32:47.792Z,18.70
2023-04-04T08:36:26.084Z,16.70
2023-04-04T08:40:09.217Z,7.90
2023-04-04T08:43:45.633Z,9.40
2023-04-04T08:47:28.632Z,10.10
2023-04-04T08:51:10.825Z,6.00
2023-04-04T08:54:43.315Z,12.50
2023-04-04T08:58:32.450Z,14.80
2023-04-04T09:02:14.330Z,7.50
2023-04-04T09:06:03.654Z,9.10
2023-04-04T09:09:55.281Z,16.00
2023-04-04T09:13:41.455Z,22.00
2023-04-04T09:17:30.785Z,12.30
2023-04-04T09:21:15.769Z,11.80
2023-04-04T09:25:04.736Z,13.00
2023-04-04T09:28:53.595Z,6.10
2023-04-04T09:32:39.510Z,5.10
2023-04-04T09:36:00.275Z,4.20
2023-04-04T09:39:48.501Z,7.40
2023-04-04T09:50:53.865Z,7.00
2023-04-04T09:54:48.378Z,7.50
2023-04-04T09:58:46.354Z,11.80
2023-04-04T10:02:39.367Z,5.70
2023-04-04T10:06:28.502Z,3.20
2023-04-04T10:10:16.741Z,7.20
2023-04-04T10:13:58.539Z,4.20
2023-04-04T10:17:37.817Z,6.20
2023-04-04T10:21:20.088Z,6.40
2023-04-04T10:24:50.117Z,6.60
2023-04-04T10:28:14.806Z,8.70
2023-04-04T10:31:51.204Z,8.50
2023-04-04T10:35:35.660Z,14.50
2023-04-04T10:39:24.917Z,35.40
2023-04-04T10:42:47.527Z,18.40
2023-04-04T10:46:25.896Z,16.90
2023-04-04T10:49:50.371Z,20.00
2023-04-04T10:53:32.571Z,42.80
2023-04-04T10:57:22.987Z,7.60
2023-04-04T11:01:02.156Z,10.50
2023-04-04T11:04:56.295Z,5.90
2023-04-04T11:08:35.738Z,6.50
2023-04-04T11:12:23.174Z,5.30
2023-04-04T11:16:12.447Z,12.60
2023-04-04T11:19:43.392Z,7.70
2023-04-04T11:23:50.820Z,5.50
2023-04-04T11:27:22.866Z,8.00
2023-04-04T11:30:49.072Z,4.30
2023-04-04T11:34:21.768Z,6.40
2023-04-04T11:38:01.020Z,6.30
2023-04-04T11:41:24.471Z,3.00
2023-04-04T11:44:30.741Z,3.20
2023-04-04T11:47:47.671Z,6.10
2023-04-04T11:51:13.488Z,4.70
2023-04-04T11:54:47.896Z,4.70
2023-04-04T11:58:00.202Z,8.70
2023-04-04T12:01:32.990Z,4.50
2023-04-04T12:05:04.719Z,4.60
2023-04-04T12:08:12.981Z,5.60
2023-04-04T12:11:24.141Z,9.00
2023-04-04T12:14:32.048Z,4.40
2023-04-04T12:17:54.427Z,5.40
2023-04-04T12:21:17.967Z,6.70
2023-04-04T12:24:49.980Z,4.80
2023-04-04T12:28:15.228Z,14.80
2023-04-04T12:31:39.763Z,9.50
2023-04-04T12:35:03.493Z,6.70
2023-04-04T12:38:40.692Z,11.40
2023-04-04T12:41:31.700Z,13.00
2023-04-04T12:45:15.514Z,8.30
2023-04-04T12:48:42.388Z,7.30
2023-04-04T12:51:48.144Z,4.00
2023-04-04T12:55:07.600Z,5.10
2023-04-04T12:58:10.810Z,5.60
2023-04-04T13:01:24.700Z,6.00
2023-04-04T13:04:55.433Z,6.50
2023-04-04T13:08:47.359Z,8.60
2023-04-04T13:12:37.250Z,9.50
2023-04-04T13:16:24.757Z,7.10
2023-04-04T13:19:25.722Z,3.10
2023-04-04T13:22:22.424Z,5.90
2023-04-04T13:25:10.269Z,4.00
2023-04-04T13:27:48.982Z,3.80
2023-04-04T13:30:32.348Z,4.90
2023-04-04T13:33:19.847Z,5.30
2023-04-04T13:36:21.913Z,5.20
2023-04-04T13:39:06.867Z,5.00
2023-04-04T13:42:18.663Z,3.60
2023-04-04T13:45:21.449Z,5.70
2023-04-04T13:48:29.652Z,3.50
2023-04-04T13:51:27.014Z,4.40
2023-04-04T13:54:35.632Z,7.50
2023-04-04T13:57:27.258Z,2.60
2023-04-04T14:00:37.411Z,6.20
2023-04-04T14:03:31.564Z,3.70
2023-04-04T14:06:59.569Z,3.40
2023-04-04T14:10:17.607Z,9.00
2023-04-04T14:13:28.793Z,3.90
2023-04-04T14:16:24.004Z,4.00
2023-04-04T14:19:26.365Z,3.40
2023-04-04T14:22:33.676Z,4.70
2023-04-04T14:25:54.256Z,5.40
2023-04-04T14:28:50.661Z,9.70
2023-04-04T14:31:38.378Z,9.90
2023-04-04T14:34:23.594Z,7.70
2023-04-04T14:37:28.319Z,7.30
2023-04-04T14:40:28.541Z,6.70
2023-04-04T14:46:42.021Z,8.40
2023-04-04T14:49:48.775Z,8.10
2023-04-04T14:52:55.752Z,5.00
2023-04-04T14:55:58.650Z,4.90
2023-04-04T14:59:32.496Z,7.30
2023-04-04T15:02:33.426Z,7.10
2023-04-04T15:06:14.394Z,9.50
2023-04-04T15:13:00.205Z,6.20
2023-04-04T15:16:21.535Z,9.80
2023-04-04T15:19:55.410Z,9.60
2023-04-04T15:23:33.638Z,13.80
2023-04-04T15:27:16.415Z,4.50
2023-04-04T15:30:35.194Z,4.70
2023-04-04T15:33:59.416Z,5.00
2023-04-04T15:37:48.509Z,5.80
2023-04-04T15:41:07.314Z,11.20
2023-04-04T15:44:30.292Z,8.10
2023-04-04T15:47:58.382Z,6.20
2023-04-04T15:54:43.297Z,10.40
2023-04-04T15:58:32.420Z,14.00
2023-04-04T16:02:13.889Z,15.80
2023-04-04T16:05:42.165Z,16.50
2023-04-04T16:09:10.049Z,10.40
2023-04-04T16:12:29.312Z,9.90
2023-04-04T16:15:39.963Z,7.20
2023-04-04T16:19:18.203Z,11.10
2023-04-04T16:22:55.704Z,8.80
2023-04-04T16:26:26.337Z,13.60
2023-04-04T16:30:04.436Z,7.10
2023-04-04T16:33:19.816Z,5.40
2023-04-04T16:37:05.403Z,6.10
2023-04-04T16:40:25.697Z,9.90
2023-04-04T16:43:47.626Z,4.10
2023-04-04T16:47:29.670Z,6.40
2023-04-04T16:51:12.659Z,8.90
2023-04-04T16:54:15.551Z,9.10
2023-04-04T16:57:46.800Z,7.50
2023-04-04T17:01:23.325Z,8.00
2023-04-04T17:05:12.436Z,8.50
2023-04-04T17:08:45.328Z,8.30
2023-04-04T17:12:27.168Z,6.90
2023-04-04T17:16:09.077Z,10.50
2023-04-04T17:19:45.404Z,10.30
2023-04-04T17:23:34.488Z,13.90
2023-04-04T17:27:14.206Z,11.20
2023-04-04T17:30:53.750Z,18.50
2023-04-04T17:34:36.039Z,21.50
2023-04-04T17:38:23.316Z,11.90
2023-04-04T17:41:56.386Z,14.90
2023-04-04T17:45:45.812Z,13.40
2023-04-04T17:49:17.681Z,9.40
2023-04-04T17:53:06.958Z,12.10
2023-04-04T17:56:56.100Z,19.10
2023-04-04T18:00:44.031Z,22.50
2023-04-04T18:04:23.760Z,34.00
2023-04-04T18:08:12.854Z,56.30
2023-04-04T18:12:01.972Z,35.60
2023-04-04T18:15:50.393Z,19.10
2023-04-04T18:19:40.247Z,18.20
2023-04-04T18:23:28.599Z,12.70
2023-04-04T18:27:03.426Z,22.40
2023-04-04T18:30:52.901Z,15.10
2023-04-04T18:34:41.987Z,18.00
2023-04-04T18:38:30.932Z,27.60
2023-04-04T18:42:05.725Z,21.50
2023-04-04T18:45:40.853Z,21.00
2023-04-04T18:49:28.527Z,23.10
2023-04-04T18:53:17.587Z,24.70
2023-04-04T18:57:05.594Z,18.40
2023-04-04T19:00:55.010Z,34.70
2023-04-04T19:04:43.488Z,36.90
2023-04-04T19:08:32.671Z,43.90
2023-04-04T19:12:13.129Z,41.00
2023-04-04T19:16:02.349Z,44.00
2023-04-04T19:19:44.704Z,44.50
2023-04-04T19:23:32.749Z,46.70
2023-04-04T19:27:22.032Z,50.90
2023-04-04T19:31:19.543Z,44.80
2023-04-04T19:34:59.346Z,59.70
2023-04-04T19:38:48.738Z,75.10
2023-04-04T19:42:40.545Z,79.70
2023-04-04T19:46:29.845Z,41.70
2023-04-04T19:50:01.932Z,44.30
2023-04-04T19:53:52.182Z,53.20
2023-04-04T19:57:39.613Z,56.30
2023-04-04T20:01:21.829Z,61.10
2023-04-04T20:05:05.478Z,56.30
2023-04-04T20:08:55.755Z,59.30
2023-04-04T20:12:36.401Z,62.90
2023-04-04T20:16:15.979Z,56.60
2023-04-04T20:20:04.358Z,51.30
2023-04-04T20:23:53.626Z,42.70
2023-04-04T20:27:39.591Z,30.70
2023-04-04T20:31:28.902Z,20.00
2023-04-04T20:35:20.182Z,37.50
2023-04-04T20:38:59.838Z,24.60
2023-04-04T20:43:04.014Z,26.20
2023-04-04T20:46:53.101Z,25.30
2023-04-04T20:50:42.509Z,12.60
2023-04-04T20:54:32.387Z,11.10
2023-04-04T20:58:22.377Z,7.40
2023-04-04T21:02:12.057Z,13.10
2023-04-04T21:06:11.211Z,9.50
2023-04-04T21:10:00.435Z,10.70
2023-04-04T21:13:49.583Z,10.50
2023-04-04T21:17:38.494Z,10.50
2023-04-04T21:21:48.991Z,10.60
2023-04-04T21:59:45.384Z,11.20
